< Typhoon 196510 1965 Season Typhoon 196512 >
Typhoon 196511 (FREDA)
General InformationTrack Information on Google Maps || Disaster Info.ResourceGoogle EarthGE AnimationAtom FeedGeoJSON
Detalied Best Track (Time Zone = UTC)
Year Month Day Hour Lat. Long. Pressure (hPa) Wind (kt) Class Image Chart
1965 7 6 06 8.2 143.8 1006 0 2 -- Chart
1965 7 6 12 8.5 143.2 1006 0 2 -- Chart
1965 7 6 18 8.7 142.6 1006 0 2 -- Chart
1965 7 7 00 8.9 142.3 1004 0 2 -- Chart
1965 7 7 06 9.3 141.5 1002 0 2 -- Chart
1965 7 7 12 9.9 141.2 1002 0 2 -- Chart
1965 7 7 18 10.7 140.8 1000 0 9 -- Chart
1965 7 8 00 11.5 140.3 998 0 9 -- Chart
1965 7 8 06 12.3 139.5 998 0 9 -- Chart
1965 7 8 12 12.8 138.2 996 0 9 -- Chart
1965 7 8 18 13.1 136.9 996 0 9 -- Chart
1965 7 9 00 13.6 135.5 992 0 9 -- Chart
1965 7 9 06 13.7 134.2 985 0 9 -- Chart
1965 7 9 12 13.5 133.0 985 0 9 -- Chart
1965 7 9 18 13.4 131.6 985 0 9 -- Chart
1965 7 10 00 13.0 130.9 980 0 9 -- Chart
1965 7 10 06 12.8 130.5 970 0 9 -- Chart
1965 7 10 12 12.6 130.5 970 0 9 -- Chart
1965 7 10 18 12.5 130.4 970 0 9 -- Chart
1965 7 11 00 12.5 130.4 960 0 9 -- Chart
1965 7 11 06 12.6 130.3 960 0 9 -- Chart
1965 7 11 12 13.2 129.7 950 0 9 -- Chart
1965 7 11 18 13.6 128.9 950 0 9 -- Chart
1965 7 12 00 14.1 128.2 940 0 9 -- Chart
1965 7 12 06 14.5 127.4 925 0 9 -- Chart
1965 7 12 12 15.0 126.1 925 0 9 -- Chart
1965 7 12 18 15.8 125.0 925 0 9 -- Chart
1965 7 13 00 16.7 123.8 930 0 9 -- Chart
1965 7 13 06 17.5 122.3 940 0 9 -- Chart
1965 7 13 12 17.9 120.2 970 0 9 -- Chart
1965 7 13 18 17.9 119.0 970 0 9 -- Chart
1965 7 14 00 18.0 117.5 965 0 9 -- Chart
1965 7 14 06 18.8 116.2 965 0 9 -- Chart
1965 7 14 12 19.7 114.5 965 0 9 -- Chart
1965 7 14 18 20.5 112.8 965 0 9 -- Chart
1965 7 15 00 20.9 111.3 975 0 9 -- Chart
1965 7 15 06 20.8 109.6 980 0 9 -- Chart
1965 7 15 12 21.3 108.5 980 0 9 -- Chart
1965 7 15 18 21.5 107.5 985 0 9 -- Chart
1965 7 16 00 22.0 106.0 990 0 9 -- Chart
1965 7 16 06 23.0 103.8 992 0 2 -- Chart
1965 7 16 12 24.5 100.0 996 0 2 -- Chart
1965 7 16 18 26.5 98.5 996 0 2 -- Chart
Japan Meteorological Agency Best Track Data | Correction Date : 1990-10-17
< Typhoon 196510 1965 Season Typhoon 196512 >

Help